createdAt,value
2019-04-10T00:12:11.881Z,54.3
2019-04-10T00:27:24.305Z,54.5
2019-04-10T00:42:30.313Z,53.9
2019-04-10T00:57:50.082Z,53.6
2019-04-10T01:13:02.982Z,53.8
2019-04-10T01:28:15.030Z,52.8
2019-04-10T01:43:27.804Z,53.5
2019-04-10T01:58:41.299Z,53.6
2019-04-10T02:13:53.878Z,53.4
2019-04-10T02:29:05.798Z,53.9
2019-04-10T02:44:20.516Z,54
2019-04-10T02:59:27.347Z,53.9
2019-04-10T03:14:47.727Z,53.8
2019-04-10T03:29:56.373Z,53.4
2019-04-10T03:45:09.778Z,53.7
2019-04-10T04:00:22.610Z,54.8
2019-04-10T04:15:33.972Z,56.6
2019-04-10T04:30:46.058Z,58.5
2019-04-10T04:45:59.480Z,58.8
2019-04-10T05:01:10.793Z,58.8
2019-04-10T05:16:21.048Z,57.3
2019-04-10T05:31:34.508Z,56.4
2019-04-10T05:46:47.787Z,53.4
2019-04-10T06:01:59.376Z,49.8
2019-04-10T06:17:10.313Z,42.7
2019-04-10T06:32:25.626Z,35.2
2019-04-10T06:47:38.464Z,32.4
2019-04-10T07:02:42.478Z,29.8
2019-04-10T07:18:03.554Z,29.8
2019-04-10T07:33:19.876Z,29.6
2019-04-10T07:48:29.914Z,28.6
2019-04-10T08:03:39.803Z,27.6
2019-04-10T08:18:57.091Z,27.1
2019-04-10T08:34:11.657Z,26.1
2019-04-10T08:49:25.142Z,26
2019-04-10T09:04:33.767Z,24.6
2019-04-10T09:19:54.282Z,23.8
2019-04-10T09:35:09.125Z,23.1
2019-04-10T09:50:26.133Z,22.8
2019-04-10T10:05:39.043Z,22.4
2019-04-10T10:20:54.452Z,21.6
2019-04-10T10:36:08.698Z,21.4
2019-04-10T10:51:24.243Z,19.4
2019-04-10T11:06:59.171Z,18.2
2019-04-10T11:22:47.749Z,18.1
2019-04-10T11:38:11.370Z,17.1
2019-04-10T11:53:39.072Z,15.9
2019-04-10T12:09:38.677Z,15.4
2019-04-10T12:26:48.066Z,14.7
2019-04-10T12:42:14.676Z,14.3
2019-04-10T12:57:33.126Z,13.8
2019-04-10T13:12:51.661Z,13.1
2019-04-10T13:28:11.762Z,12.2
2019-04-10T13:43:29.962Z,11.3
2019-04-10T13:58:42.290Z,11.9
2019-04-10T14:14:08.801Z,10.6
2019-04-10T14:29:27.777Z,10.8
2019-04-10T14:44:46.977Z,11.2
2019-04-10T15:00:06.638Z,11.3
2019-04-10T15:15:25.793Z,12.3
2019-04-10T15:30:37.058Z,11.8
2019-04-10T15:46:02.574Z,11.8
2019-04-10T16:01:21.841Z,12
2019-04-10T16:16:40.235Z,12.1
2019-04-10T16:31:57.058Z,13.9
2019-04-10T16:47:14.488Z,13.8
2019-04-10T17:02:26.701Z,14
2019-04-10T17:17:50.596Z,15.8
2019-04-10T17:33:05.389Z,17.2
2019-04-10T17:48:22.156Z,19.6
2019-04-10T18:03:52.079Z,21.4
2019-04-10T18:19:46.404Z,22.9
2019-04-10T18:35:00.870Z,33.2
2019-04-10T18:50:16.304Z,33.1
2019-04-10T19:05:29.638Z,32.4
2019-04-10T19:20:35.758Z,33.2
2019-04-10T19:35:55.901Z,35.6
2019-04-10T19:51:10.300Z,31
2019-04-10T20:06:25.390Z,31.5
2019-04-10T20:21:37.312Z,29.3
2019-04-10T20:36:50.412Z,29.6
2019-04-10T20:52:04.436Z,32.1
2019-04-10T21:07:16.257Z,33.8
2019-04-10T21:22:28.952Z,33.9
2019-04-10T21:37:40.586Z,28.8
2019-04-10T21:52:54.073Z,29
2019-04-10T22:08:07.369Z,30.1
2019-04-10T22:23:20.374Z,30.2
2019-04-10T22:38:25.255Z,30.9
2019-04-10T22:53:44.016Z,31.2
2019-04-10T23:08:56.475Z,31.4
2019-04-10T23:24:09.759Z,31.6
2019-04-10T23:39:22.076Z,32.2
2019-04-10T23:54:33.598Z,32
